Terminal Aerodrome Forecast
Issued by NWS Charleston, WV

Home | Current Version | Previous Version | Text Only | Print | Product List | Glossary On
Versions: 1 2 3 4 5 6 7 8 9 10 11 12 13 14 15 16 17 18 19 20 21 22 23
327
FTUS41 KRLX 291120
TAFPKB
TAF
KPKB 291120Z 2912/3012 00000KT P6SM BKN045
     FM291400 VRB03KT P6SM OVC035
     FM291600 09005KT P6SM SHRA VCTS OVC035CB
     FM300100 05004KT 5SM SHRA OVC025
     FM300600 08005KT 3SM SHRA OVC010=

USA.gov is the U.S. government's official web portal to all federal, state and local government web resources and services.